createdAt,value
2022-11-18T00:01:49.326Z,45.8
2022-11-18T00:07:27.164Z,45.8
2022-11-18T00:12:48.685Z,45.8
2022-11-18T00:18:27.124Z,45.7
2022-11-18T00:24:09.178Z,45.7
2022-11-18T00:29:46.145Z,45.6
2022-11-18T00:35:22.732Z,45.6
2022-11-18T00:40:45.701Z,45.6
2022-11-18T00:46:23.011Z,45.5
2022-11-18T00:51:45.438Z,45.5
2022-11-18T00:57:23.512Z,45.4
2022-11-18T01:02:46.589Z,45.4
2022-11-18T01:08:08.622Z,45.4
2022-11-18T01:13:31.579Z,45.3
2022-11-18T01:19:09.145Z,45.3
2022-11-18T01:24:31.180Z,45.3
2022-11-18T01:29:57.668Z,45.3
2022-11-18T01:35:51.681Z,45.2
2022-11-18T01:41:29.675Z,45.2
2022-11-18T01:46:52.227Z,45.1
2022-11-18T01:52:29.897Z,45.1
2022-11-18T01:57:41.726Z,45.1
2022-11-18T02:03:05.475Z,45.1
2022-11-18T02:08:43.602Z,45.3
2022-11-18T02:14:22.439Z,46.2
2022-11-18T02:20:00.344Z,47.3
2022-11-18T02:25:37.307Z,48.4
2022-11-18T02:30:59.424Z,49.4
2022-11-18T02:36:21.341Z,50.4
2022-11-18T02:41:43.011Z,51.4
2022-11-18T02:47:20.808Z,52.6
2022-11-18T02:52:58.903Z,53.7
2022-11-18T02:58:36.345Z,54.9
2022-11-18T03:04:14.236Z,56
2022-11-18T03:09:36.827Z,57.1
2022-11-18T03:14:43.300Z,58.2
2022-11-18T03:20:21.335Z,59.1
2022-11-18T03:25:27.670Z,60.2
2022-11-18T03:31:05.078Z,61.1
2022-11-18T03:36:12.514Z,61.6
2022-11-18T03:41:59.599Z,61.6
2022-11-18T03:47:42.834Z,61.6
2022-11-18T03:53:05.232Z,61.6
2022-11-18T03:58:48.715Z,61.6
2022-11-18T04:04:25.525Z,61.5
2022-11-18T04:10:03.262Z,61.5
2022-11-18T04:15:42.013Z,61.5
2022-11-18T04:21:19.551Z,61.4
2022-11-18T04:26:57.617Z,61.4
2022-11-18T04:32:19.885Z,61.4
2022-11-18T04:37:56.846Z,61.3
2022-11-18T04:43:26.534Z,61.3
2022-11-18T04:49:09.528Z,61.3
2022-11-18T04:54:47.286Z,61.2
2022-11-18T05:00:29.971Z,61.2
2022-11-18T05:05:52.347Z,61.1
2022-11-18T05:11:15.320Z,61.1
2022-11-18T05:16:38.809Z,61.1
2022-11-18T05:22:05.277Z,61
2022-11-18T05:27:42.691Z,61
2022-11-18T05:33:05.445Z,60.9
2022-11-18T05:38:46.030Z,60.9
2022-11-18T05:44:08.292Z,60.8
2022-11-18T05:49:48.491Z,60.8
2022-11-18T05:55:27.111Z,60.8
2022-11-18T06:01:05.352Z,60.7
2022-11-18T06:06:43.950Z,60.7
2022-11-18T06:12:22.987Z,60.6
2022-11-18T06:18:03.256Z,60.6
2022-11-18T06:23:41.727Z,60.6
2022-11-18T06:29:24.470Z,60.5
2022-11-18T06:35:03.465Z,60.4
2022-11-18T06:40:48.137Z,60.4
2022-11-18T06:46:12.160Z,60.4
2022-11-18T06:51:35.049Z,60.3
2022-11-18T06:57:18.560Z,60.3
2022-11-18T07:02:56.816Z,60.3
2022-11-18T07:08:33.797Z,60.2
2022-11-18T07:14:16.638Z,60.1
2022-11-18T07:19:54.161Z,60.1
2022-11-18T07:25:31.504Z,60.1
2022-11-18T07:31:10.096Z,60
2022-11-18T07:36:52.318Z,59.9
2022-11-18T07:42:30.382Z,59.9
2022-11-18T07:48:14.640Z,59.9
2022-11-18T07:53:54.988Z,59.8
2022-11-18T07:59:32.766Z,59.8
2022-11-18T08:05:16.460Z,59.8
2022-11-18T08:10:56.206Z,59.7
2022-11-18T08:16:37.427Z,59.6
2022-11-18T08:22:15.112Z,59.6
2022-11-18T08:27:57.866Z,59.6
2022-11-18T08:33:39.590Z,59.5
2022-11-18T08:39:06.832Z,59.5
2022-11-18T08:44:32.056Z,59.4
2022-11-18T08:50:09.906Z,59.4
2022-11-18T08:55:48.084Z,59.3
2022-11-18T09:01:25.773Z,59.3
2022-11-18T09:07:02.663Z,59.3
2022-11-18T09:12:47.293Z,59.2
2022-11-18T09:20:21.622Z,59.1
2022-11-18T09:26:00.143Z,59.1
2022-11-18T09:31:44.339Z,59.1
2022-11-18T09:37:22.599Z,59
2022-11-18T09:43:06.149Z,58.9
2022-11-18T09:48:49.483Z,58.9
2022-11-18T09:55:08.958Z,58.9
2022-11-18T10:00:47.439Z,58.8
2022-11-18T10:06:25.748Z,58.8
2022-11-18T10:12:08.506Z,58.8
2022-11-18T10:17:47.951Z,58.7
2022-11-18T10:23:58.241Z,58.6
2022-11-18T10:40:51.997Z,58.5
2022-11-18T10:52:00.452Z,58.7
2022-11-18T10:57:43.059Z,58.9
2022-11-18T11:03:24.413Z,59.2
2022-11-18T11:09:11.819Z,59.2
2022-11-18T11:14:51.194Z,59.2
2022-11-18T11:20:30.156Z,59.2
2022-11-18T11:33:38.741Z,59.1
2022-11-18T11:39:21.508Z,59.1
2022-11-18T11:44:59.412Z,59.1
2022-11-18T11:50:22.543Z,59
2022-11-18T11:55:53.024Z,59
2022-11-18T12:01:31.687Z,58.9
2022-11-18T12:07:16.160Z,58.9
2022-11-18T12:12:55.008Z,58.9
2022-11-18T12:18:37.807Z,58.8
2022-11-18T12:24:16.544Z,58.8
2022-11-18T12:29:55.265Z,58.8
2022-11-18T12:35:32.611Z,58.7
2022-11-18T12:41:10.626Z,58.6
2022-11-18T12:46:48.826Z,58.6
2022-11-18T13:03:17.119Z,58.5
2022-11-18T13:09:00.904Z,58.5
2022-11-18T13:14:40.172Z,58.4
2022-11-18T13:20:19.017Z,58.4
2022-11-18T13:25:25.515Z,58.3
2022-11-18T13:31:03.052Z,58.3
2022-11-18T13:36:41.011Z,58.3
2022-11-18T13:42:10.533Z,58.3
2022-11-18T13:47:52.602Z,58.2
2022-11-18T13:53:31.518Z,58.1
2022-11-18T13:58:56.042Z,58.1
2022-11-18T14:04:32.919Z,58.1
2022-11-18T14:09:56.237Z,58
2022-11-18T14:15:34.668Z,58
2022-11-18T14:21:13.938Z,57.9
2022-11-18T14:26:53.742Z,57.9
2022-11-18T14:32:15.928Z,57.8
2022-11-18T14:38:00.156Z,57.8
2022-11-18T14:49:43.383Z,57.7
2022-11-18T14:55:29.928Z,57.7
2022-11-18T15:01:08.555Z,57.6
2022-11-18T15:06:22.205Z,57.6
2022-11-18T15:12:00.456Z,57.6
2022-11-18T15:17:07.883Z,57.5
2022-11-18T15:22:45.517Z,57.4
2022-11-18T15:28:23.891Z,57.4
2022-11-18T15:34:06.705Z,57.3
2022-11-18T15:39:45.165Z,57
2022-11-18T15:45:05.025Z,56.9
2022-11-18T15:50:43.496Z,56.9
2022-11-18T15:56:13.259Z,56.9
2022-11-18T16:01:56.285Z,56.8
2022-11-18T16:07:03.759Z,56.8
2022-11-18T16:12:44.061Z,56.8
2022-11-18T16:18:06.485Z,56.8
2022-11-18T16:23:46.198Z,56.7
2022-11-18T16:29:30.323Z,56.6
2022-11-18T16:35:16.394Z,56.6
2022-11-18T16:40:54.367Z,56.6
2022-11-18T16:46:44.779Z,56.5
2022-11-18T16:52:07.703Z,56.5
2022-11-18T16:57:52.968Z,56.4
2022-11-18T17:03:56.991Z,56.4
2022-11-18T17:09:36.141Z,56.4
2022-11-18T17:14:47.427Z,56.3
2022-11-18T17:20:14.806Z,56.3
2022-11-18T17:25:55.066Z,56.3
2022-11-18T17:31:07.483Z,56.3
2022-11-18T17:36:29.438Z,56.2
2022-11-18T17:41:57.188Z,56.1
2022-11-18T17:47:27.097Z,56.1
2022-11-18T17:53:04.830Z,56.1
2022-11-18T17:58:54.395Z,56
2022-11-18T18:04:35.329Z,55.9
2022-11-18T18:10:03.790Z,55.9
2022-11-18T18:15:32.905Z,55.9
2022-11-18T18:21:12.902Z,55.8
2022-11-18T18:26:51.606Z,55.8
2022-11-18T18:32:30.313Z,55.8
2022-11-18T18:37:43.791Z,55.7
2022-11-18T18:42:50.847Z,55.7
2022-11-18T18:48:34.309Z,55.6
2022-11-18T18:54:13.514Z,55.6
2022-11-18T18:59:43.351Z,55.6
2022-11-18T19:05:53.842Z,55.5
2022-11-18T19:12:06.796Z,55.4
2022-11-18T19:17:31.629Z,55.4
2022-11-18T19:22:56.135Z,55.4
2022-11-18T19:29:04.817Z,55.4
2022-11-18T19:34:33.576Z,55.3
2022-11-18T19:40:14.016Z,55.3
2022-11-18T19:45:54.127Z,55.2
2022-11-18T19:51:38.357Z,55.2
2022-11-18T19:57:25.002Z,55.2
2022-11-18T20:03:04.948Z,55.1
2022-11-18T20:08:45.094Z,55.1
2022-11-18T20:14:29.936Z,55
2022-11-18T20:20:24.209Z,54.9
2022-11-18T20:26:03.874Z,54.9
2022-11-18T20:31:33.056Z,54.9
2022-11-18T20:37:13.309Z,55
2022-11-18T20:42:37.315Z,55.8
2022-11-18T20:48:02.934Z,56.9
2022-11-18T20:53:12.081Z,57.8
2022-11-18T20:58:04.699Z,58.9
2022-11-18T21:03:43.695Z,59.8
2022-11-18T21:09:23.627Z,60.9
2022-11-18T21:15:03.981Z,61.3
2022-11-18T21:20:43.607Z,61.4
2022-11-18T21:26:29.356Z,61.4
2022-11-18T21:32:12.358Z,61.4
2022-11-18T21:37:55.164Z,61.3
2022-11-18T21:44:06.143Z,61.3
2022-11-18T21:49:50.302Z,61.3
2022-11-18T21:55:28.680Z,61.3
2022-11-18T22:00:55.932Z,61.2
2022-11-18T22:06:17.616Z,61.1
2022-11-18T22:11:40.479Z,61.1
2022-11-18T22:17:18.550Z,61.1
2022-11-18T22:23:02.411Z,61.1
2022-11-18T22:28:42.768Z,61
2022-11-18T22:34:21.203Z,60.9
2022-11-18T22:39:59.293Z,60.9
2022-11-18T22:45:43.003Z,60.9
2022-11-18T22:51:21.085Z,60.8
2022-11-18T22:59:09.403Z,60.8
2022-11-18T23:06:12.971Z,60.8
2022-11-18T23:11:53.536Z,60.7
2022-11-18T23:17:21.990Z,60.6
2022-11-18T23:22:47.678Z,60.6
2022-11-18T23:28:27.503Z,60.6
2022-11-18T23:34:07.740Z,60.6
2022-11-18T23:39:47.268Z,60.5
2022-11-18T23:44:55.294Z,60.4
2022-11-18T23:50:36.527Z,60.4
2022-11-18T23:56:17.498Z,60.4
